createdAt,value
2018-07-09T00:00:25.522Z,4.00
2018-07-09T00:01:25.535Z,4.00
2018-07-09T00:02:25.549Z,4.00
2018-07-09T00:03:25.575Z,4.00
2018-07-09T00:04:25.635Z,4.00
2018-07-09T00:05:25.606Z,4.00
2018-07-09T00:06:25.621Z,4.00
2018-07-09T00:07:25.641Z,4.00
2018-07-09T00:08:25.659Z,4.00
2018-07-09T00:09:25.671Z,4.00
2018-07-09T00:10:25.719Z,4.00
2018-07-09T00:11:25.711Z,4.00
2018-07-09T00:12:25.731Z,4.00
2018-07-09T00:13:25.743Z,4.00
2018-07-09T00:14:25.763Z,4.00
2018-07-09T00:15:25.778Z,4.00
2018-07-09T00:16:25.803Z,4.00
2018-07-09T00:17:25.815Z,4.00
2018-07-09T00:18:25.836Z,4.00
2018-07-09T00:19:25.852Z,4.00
2018-07-09T00:20:25.872Z,4.00
2018-07-09T00:21:25.885Z,4.00
2018-07-09T00:22:25.902Z,4.00
2018-07-09T00:23:25.924Z,4.00
2018-07-09T00:24:25.937Z,4.00
2018-07-09T00:25:25.961Z,4.00
2018-07-09T00:26:25.975Z,4.00
2018-07-09T00:27:25.995Z,4.00
2018-07-09T00:28:26.013Z,4.00
2018-07-09T00:29:26.035Z,4.00
2018-07-09T00:30:26.050Z,4.00
2018-07-09T00:31:26.066Z,4.00
2018-07-09T00:32:26.080Z,4.00
2018-07-09T00:33:26.102Z,4.00
2018-07-09T00:34:26.121Z,4.00
2018-07-09T00:35:26.206Z,4.00
2018-07-09T00:36:26.155Z,4.00
2018-07-09T00:37:26.174Z,4.00
2018-07-09T00:38:26.192Z,4.00
2018-07-09T00:39:26.209Z,4.00
2018-07-09T00:40:26.226Z,4.00
2018-07-09T00:41:26.325Z,4.00
2018-07-09T00:42:26.257Z,4.00
2018-07-09T00:43:26.279Z,4.00
2018-07-09T00:44:26.293Z,4.00
2018-07-09T00:45:26.313Z,4.00
2018-07-09T00:46:26.333Z,4.00
2018-07-09T00:47:26.420Z,4.00
2018-07-09T00:48:26.365Z,4.00
2018-07-09T00:49:26.381Z,4.00
2018-07-09T00:50:26.405Z,4.00
2018-07-09T00:51:26.417Z,4.00
2018-07-09T00:52:26.439Z,4.00
2018-07-09T00:53:26.501Z,4.00
2018-07-09T00:54:26.476Z,4.00
2018-07-09T00:55:26.493Z,4.00
2018-07-09T00:56:26.512Z,4.00
2018-07-09T00:57:26.528Z,4.00
2018-07-09T00:58:26.548Z,4.00
2018-07-09T00:59:26.564Z,4.00
2018-07-09T01:00:26.577Z,4.00
2018-07-09T01:01:26.594Z,4.00
2018-07-09T01:02:26.617Z,4.00
2018-07-09T01:03:26.630Z,4.00
2018-07-09T01:04:26.658Z,4.00
2018-07-09T01:05:26.720Z,4.00
2018-07-09T01:06:26.740Z,4.00
2018-07-09T01:07:26.706Z,4.00
2018-07-09T01:08:26.725Z,4.00
2018-07-09T01:09:26.737Z,4.00
2018-07-09T01:10:26.758Z,4.00
2018-07-09T01:11:26.777Z,4.00
2018-07-09T01:12:26.860Z,4.00
2018-07-09T01:13:26.811Z,4.00
2018-07-09T01:14:26.828Z,4.00
2018-07-09T01:15:26.866Z,4.00
2018-07-09T01:16:26.862Z,4.00
2018-07-09T01:17:26.886Z,4.00
2018-07-09T01:18:26.912Z,4.00
2018-07-09T01:19:26.917Z,4.00
2018-07-09T01:20:26.951Z,4.00
2018-07-09T01:21:26.951Z,4.00
2018-07-09T01:22:26.983Z,4.00
2018-07-09T01:23:26.995Z,4.00
2018-07-09T01:24:27.003Z,4.00
2018-07-09T01:25:27.021Z,4.00
2018-07-09T01:26:27.044Z,4.00
2018-07-09T01:27:27.058Z,4.00
2018-07-09T01:28:27.077Z,4.00
2018-07-09T01:29:27.092Z,4.00
2018-07-09T01:30:27.115Z,4.00
2018-07-09T01:31:27.135Z,4.00
2018-07-09T01:32:27.149Z,4.00
2018-07-09T01:33:27.167Z,4.00
2018-07-09T01:34:27.184Z,4.00
2018-07-09T01:35:27.200Z,4.00
2018-07-09T01:36:27.215Z,4.00
2018-07-09T01:37:27.236Z,4.00
2018-07-09T01:38:27.250Z,4.00
2018-07-09T01:39:27.266Z,4.00
2018-07-09T01:40:27.288Z,4.00
2018-07-09T01:41:27.310Z,4.00
2018-07-09T01:42:27.324Z,4.00
2018-07-09T01:43:27.359Z,4.00
2018-07-09T01:44:27.354Z,4.00
2018-07-09T01:45:27.380Z,4.00
2018-07-09T01:46:27.392Z,4.00
2018-07-09T01:47:27.414Z,4.00
2018-07-09T01:48:27.426Z,4.00
2018-07-09T01:49:27.476Z,4.00
2018-07-09T01:50:27.467Z,4.00
2018-07-09T01:51:27.479Z,4.00
2018-07-09T01:52:27.499Z,4.00
2018-07-09T01:53:27.520Z,4.00
2018-07-09T01:54:27.533Z,4.00
2018-07-09T01:55:27.580Z,4.00
2018-07-09T01:56:27.573Z,4.00
2018-07-09T01:57:27.592Z,4.00
2018-07-09T01:58:27.609Z,4.00
2018-07-09T01:59:27.625Z,4.00
2018-07-09T02:00:27.639Z,4.00
2018-07-09T02:01:27.657Z,4.00
2018-07-09T02:02:27.674Z,4.00
2018-07-09T02:03:27.696Z,4.00
2018-07-09T02:04:27.711Z,4.00
2018-07-09T02:05:27.727Z,4.00
2018-07-09T02:06:27.744Z,4.00
2018-07-09T02:07:27.764Z,4.00
2018-07-09T02:08:27.784Z,4.00
2018-07-09T02:09:27.796Z,4.00
2018-07-09T02:10:27.818Z,4.00
2018-07-09T02:11:27.837Z,4.00
2018-07-09T02:12:27.847Z,4.00
2018-07-09T02:13:27.871Z,4.00
2018-07-09T02:14:27.950Z,4.00
2018-07-09T02:15:27.900Z,4.00
2018-07-09T02:16:27.917Z,4.00
2018-07-09T02:17:27.935Z,4.00
2018-07-09T02:18:27.957Z,4.00
2018-07-09T02:19:27.970Z,4.00
2018-07-09T02:20:28.030Z,4.00
2018-07-09T02:21:28.008Z,4.00
2018-07-09T02:22:28.023Z,4.00
2018-07-09T02:23:28.041Z,4.00
2018-07-09T02:24:28.060Z,4.00
2018-07-09T02:25:28.077Z,4.00
2018-07-09T02:26:28.096Z,4.00
2018-07-09T02:27:28.109Z,4.00
2018-07-09T02:28:28.132Z,4.00
2018-07-09T02:29:28.149Z,4.00
2018-07-09T02:30:28.213Z,4.00
2018-07-09T02:31:28.178Z,4.00
2018-07-09T02:32:28.195Z,4.00
2018-07-09T02:33:28.216Z,4.00
2018-07-09T02:34:28.236Z,4.00
2018-07-09T02:35:28.253Z,4.00
2018-07-09T02:36:28.269Z,4.00
2018-07-09T02:37:28.283Z,4.00
2018-07-09T02:38:28.322Z,4.00
2018-07-09T02:39:28.317Z,4.00
2018-07-09T02:40:28.337Z,4.00
2018-07-09T02:41:28.355Z,4.00
2018-07-09T02:42:28.380Z,4.00
2018-07-09T02:43:28.386Z,4.00
2018-07-09T02:44:28.402Z,4.00
2018-07-09T02:45:28.421Z,4.00
2018-07-09T02:46:28.443Z,4.00
2018-07-09T02:47:28.459Z,4.00
2018-07-09T02:48:28.487Z,4.00
2018-07-09T02:49:28.494Z,4.00
2018-07-09T02:50:28.510Z,4.00
2018-07-09T02:51:28.530Z,4.00
2018-07-09T02:52:28.547Z,4.00
2018-07-09T02:53:28.559Z,4.00
2018-07-09T02:54:28.576Z,4.00
2018-07-09T02:55:28.596Z,4.00
2018-07-09T02:56:28.657Z,4.00
2018-07-09T02:57:28.632Z,4.00
2018-07-09T02:58:28.654Z,4.00
2018-07-09T02:59:28.667Z,4.00
2018-07-09T03:00:28.683Z,4.00
2018-07-09T03:01:28.700Z,4.00
2018-07-09T03:02:28.713Z,4.00
2018-07-09T03:03:28.735Z,4.00
2018-07-09T03:04:28.746Z,4.00
2018-07-09T03:05:28.771Z,4.00
2018-07-09T03:06:28.788Z,4.00
2018-07-09T03:07:28.804Z,4.00
2018-07-09T03:08:28.821Z,4.00
2018-07-09T03:09:28.834Z,4.00
2018-07-09T03:10:28.857Z,4.00
2018-07-09T03:11:28.881Z,4.00
2018-07-09T03:12:28.892Z,4.00
2018-07-09T03:13:28.915Z,4.00
2018-07-09T03:14:28.928Z,4.00
2018-07-09T03:15:28.943Z,4.00
2018-07-09T03:16:28.969Z,4.00
2018-07-09T03:17:28.975Z,4.00
2018-07-09T03:18:28.993Z,4.00
2018-07-09T03:19:29.012Z,4.00
2018-07-09T03:20:29.029Z,4.00
2018-07-09T03:21:29.043Z,4.00
2018-07-09T03:22:29.070Z,4.00
2018-07-09T03:23:29.083Z,4.00
2018-07-09T03:24:29.099Z,4.00
2018-07-09T03:25:29.115Z,4.00
2018-07-09T03:26:29.154Z,4.00
2018-07-09T03:27:29.149Z,4.00
2018-07-09T03:28:29.171Z,4.00
2018-07-09T03:29:29.187Z,4.00
2018-07-09T03:30:29.204Z,4.00
2018-07-09T03:31:29.232Z,4.00
2018-07-09T03:32:29.235Z,4.00
2018-07-09T03:33:29.257Z,4.00
2018-07-09T03:34:29.277Z,4.00
2018-07-09T03:35:29.289Z,4.00
2018-07-09T03:36:29.308Z,4.00
2018-07-09T03:37:29.325Z,4.00
2018-07-09T03:38:29.339Z,4.00
2018-07-09T03:39:29.366Z,4.00
2018-07-09T03:40:29.377Z,4.00
2018-07-09T03:41:29.399Z,4.00
2018-07-09T03:42:29.408Z,4.00
2018-07-09T03:43:29.429Z,4.00
2018-07-09T03:44:29.440Z,4.00
2018-07-09T03:45:29.465Z,4.00
2018-07-09T03:46:29.476Z,4.00
2018-07-09T03:47:29.499Z,4.00
2018-07-09T03:48:29.516Z,4.00
2018-07-09T03:49:29.541Z,4.00
2018-07-09T03:50:29.548Z,4.00
2018-07-09T03:51:29.567Z,4.00
2018-07-09T03:52:29.579Z,4.00
2018-07-09T03:53:29.597Z,4.00
2018-07-09T03:54:29.615Z,4.00
2018-07-09T03:55:29.631Z,4.00
2018-07-09T03:56:29.655Z,4.00
2018-07-09T03:57:29.680Z,4.00
2018-07-09T03:58:29.688Z,4.00
2018-07-09T03:59:29.708Z,4.00
2018-07-09T04:00:29.719Z,4.00
2018-07-09T04:01:29.740Z,4.00
2018-07-09T04:02:29.754Z,4.00
2018-07-09T04:03:29.771Z,4.00
2018-07-09T04:04:29.790Z,4.00
2018-07-09T04:05:29.807Z,4.00
2018-07-09T04:06:29.824Z,4.00
2018-07-09T04:07:29.842Z,4.00
2018-07-09T04:08:29.857Z,4.00
2018-07-09T04:09:29.879Z,4.00
2018-07-09T04:10:29.897Z,4.00
2018-07-09T04:11:29.911Z,4.00
2018-07-09T04:12:29.936Z,4.00
2018-07-09T04:13:29.945Z,4.00
2018-07-09T04:14:29.967Z,4.00
2018-07-09T04:15:29.979Z,4.00
2018-07-09T04:16:30.084Z,4.00
2018-07-09T04:17:30.015Z,4.00
2018-07-09T04:18:30.032Z,4.00
2018-07-09T04:19:30.049Z,4.00
2018-07-09T04:20:30.071Z,4.00
2018-07-09T04:21:30.088Z,4.00
2018-07-09T04:22:30.146Z,4.00
2018-07-09T04:23:30.119Z,4.00
2018-07-09T04:24:30.135Z,4.00
2018-07-09T04:25:30.157Z,4.00
2018-07-09T04:26:30.174Z,4.00
2018-07-09T04:27:30.193Z,4.00
2018-07-09T04:28:30.227Z,4.00
2018-07-09T04:29:30.226Z,4.00
2018-07-09T04:30:30.242Z,4.00
2018-07-09T04:31:30.260Z,4.00
2018-07-09T04:32:30.278Z,4.00
2018-07-09T04:33:30.290Z,4.00
2018-07-09T04:34:30.311Z,4.00
2018-07-09T04:35:30.331Z,4.00
2018-07-09T04:36:30.342Z,4.00
2018-07-09T04:37:30.377Z,4.00
2018-07-09T04:38:30.384Z,4.00
2018-07-09T04:39:30.393Z,4.00
2018-07-09T04:40:30.411Z,4.00
2018-07-09T04:41:30.429Z,4.00
2018-07-09T04:42:30.466Z,4.00
2018-07-09T04:43:30.466Z,4.00
2018-07-09T04:44:30.479Z,4.00
2018-07-09T04:45:30.501Z,0.00
2018-07-09T04:46:30.519Z,0.00
2018-07-09T04:47:30.568Z,0.00
2018-07-09T04:48:30.555Z,0.00
2018-07-09T04:49:30.567Z,0.00
2018-07-09T04:50:30.582Z,4.00
2018-07-09T04:51:30.603Z,4.00
2018-07-09T04:52:30.623Z,4.00
2018-07-09T04:53:30.734Z,4.00
2018-07-09T04:54:30.658Z,4.00
2018-07-09T04:55:30.784Z,4.00
2018-07-09T04:56:30.685Z,8.00
2018-07-09T04:57:30.704Z,4.00
2018-07-09T04:58:30.720Z,8.00
2018-07-09T04:59:30.749Z,8.00
2018-07-09T05:00:30.759Z,8.00
2018-07-09T05:01:30.778Z,8.00
2018-07-09T05:02:30.794Z,8.00
2018-07-09T05:03:30.807Z,12.00
2018-07-09T05:04:30.827Z,16.00
2018-07-09T05:05:30.848Z,16.00
2018-07-09T05:06:30.861Z,16.00
2018-07-09T05:07:30.875Z,20.00
2018-07-09T05:08:30.896Z,24.00
2018-07-09T05:09:30.913Z,28.00
2018-07-09T05:10:30.933Z,32.00
2018-07-09T05:11:30.944Z,36.00
2018-07-09T05:12:30.961Z,44.00
2018-07-09T05:13:30.978Z,48.00
2018-07-09T05:14:30.996Z,56.00
2018-07-09T05:15:31.014Z,60.00
2018-07-09T05:16:31.035Z,64.00
2018-07-09T05:17:31.052Z,76.00
2018-07-09T05:18:31.085Z,84.00
2018-07-09T05:19:31.087Z,96.00
2018-07-09T05:20:31.155Z,100.00
2018-07-09T05:21:31.124Z,112.00
2018-07-09T05:22:31.134Z,124.00
2018-07-09T05:23:31.153Z,136.00
2018-07-09T05:24:31.171Z,144.00
2018-07-09T05:25:31.189Z,160.00
2018-07-09T05:26:31.210Z,176.00
2018-07-09T05:27:31.233Z,188.00
2018-07-09T05:28:31.251Z,200.00
2018-07-09T05:29:31.258Z,216.00
2018-07-09T05:30:31.272Z,232.00
2018-07-09T05:31:31.372Z,248.00
2018-07-09T05:32:31.309Z,264.00
2018-07-09T05:33:31.321Z,284.00
2018-07-09T05:34:31.342Z,300.00
2018-07-09T05:35:31.361Z,316.00
2018-07-09T05:36:31.380Z,336.00
2018-07-09T05:37:31.394Z,356.00
2018-07-09T05:38:31.408Z,376.00
2018-07-09T05:39:31.425Z,396.00
2018-07-09T05:40:31.446Z,412.00
2018-07-09T05:41:31.463Z,432.00
2018-07-09T05:42:31.481Z,452.00
2018-07-09T05:43:31.497Z,472.00
2018-07-09T05:44:31.516Z,496.00
2018-07-09T05:45:31.533Z,520.00
2018-07-09T05:46:31.550Z,540.00
2018-07-09T05:47:31.564Z,564.00
2018-07-09T05:48:31.586Z,584.00
2018-07-09T05:49:31.597Z,608.00
2018-07-09T05:50:31.615Z,632.00
2018-07-09T05:51:31.636Z,652.00
2018-07-09T05:52:31.650Z,676.00
2018-07-09T05:53:31.667Z,696.00
2018-07-09T05:54:31.695Z,716.00
2018-07-09T05:55:31.731Z,740.00
2018-07-09T05:56:31.723Z,764.00
2018-07-09T05:57:31.735Z,788.00
2018-07-09T05:58:31.759Z,812.00
2018-07-09T05:59:31.775Z,836.00
2018-07-09T06:00:31.789Z,856.00
2018-07-09T06:01:31.816Z,884.00
2018-07-09T06:02:31.828Z,904.00
2018-07-09T06:03:31.840Z,924.00
2018-07-09T06:04:31.857Z,948.00
2018-07-09T06:05:31.901Z,972.00
2018-07-09T06:06:31.891Z,996.00
2018-07-09T06:07:31.909Z,1020.00
2018-07-09T06:08:31.928Z,1044.00
2018-07-09T06:09:31.949Z,1060.00
2018-07-09T06:10:31.962Z,1080.00
2018-07-09T06:11:32.025Z,1100.00
2018-07-09T06:12:31.999Z,1124.00
2018-07-09T06:13:32.028Z,1144.00
2018-07-09T06:14:32.135Z,1168.00
2018-07-09T06:15:32.058Z,1192.00
2018-07-09T06:16:32.066Z,1208.00
2018-07-09T06:17:32.084Z,1228.00
2018-07-09T06:18:32.100Z,1256.00
2018-07-09T06:19:32.180Z,1280.00
2018-07-09T06:20:32.157Z,1304.00
2018-07-09T06:21:32.195Z,1328.00
2018-07-09T06:22:32.173Z,1348.00
2018-07-09T06:23:32.185Z,1364.00
2018-07-09T06:24:32.207Z,1392.00
2018-07-09T06:25:32.327Z,1424.00
2018-07-09T06:26:32.243Z,1456.00
2018-07-09T06:27:32.260Z,1504.00
2018-07-09T06:28:32.272Z,1548.00
2018-07-09T06:29:32.294Z,1596.00
2018-07-09T06:30:32.306Z,1644.00
2018-07-09T06:31:32.381Z,1688.00
2018-07-09T06:32:32.369Z,1748.00
2018-07-09T06:33:32.365Z,1816.00
2018-07-09T06:34:32.377Z,1892.00
2018-07-09T06:35:32.397Z,1988.00
2018-07-09T06:36:32.415Z,2120.00
2018-07-09T06:37:32.433Z,2312.00
2018-07-09T06:38:32.451Z,2572.00
2018-07-09T06:39:32.469Z,2940.00
2018-07-09T06:40:32.506Z,3236.00
2018-07-09T06:41:32.498Z,3460.00
2018-07-09T06:42:32.524Z,3612.00
2018-07-09T06:43:32.534Z,3792.00
2018-07-09T06:44:32.553Z,3924.00
2018-07-09T06:45:32.618Z,4100.00
2018-07-09T06:46:32.589Z,4168.00
2018-07-09T06:47:32.610Z,4248.00
2018-07-09T06:48:32.622Z,4324.00
2018-07-09T06:49:32.650Z,4436.00
2018-07-09T06:50:32.657Z,4556.00
2018-07-09T06:51:32.696Z,4620.00
2018-07-09T06:52:32.694Z,4728.00
2018-07-09T06:53:32.716Z,4804.00
2018-07-09T06:54:32.733Z,4920.00
2018-07-09T06:55:32.751Z,4980.00
2018-07-09T06:56:32.764Z,5020.00
2018-07-09T06:57:32.781Z,5024.00
2018-07-09T06:58:32.801Z,5112.00
2018-07-09T06:59:32.818Z,5224.00
2018-07-09T07:00:32.839Z,5348.00
2018-07-09T07:01:32.854Z,5436.00
2018-07-09T07:02:32.873Z,5476.00
2018-07-09T07:03:32.890Z,5524.00
2018-07-09T07:04:32.912Z,5620.00
2018-07-09T07:05:32.930Z,5568.00
2018-07-09T07:06:32.957Z,5640.00
2018-07-09T07:07:32.961Z,5688.00
2018-07-09T07:08:33.016Z,5836.00
2018-07-09T07:09:32.999Z,5828.00
2018-07-09T07:10:33.026Z,6016.00
2018-07-09T07:11:33.034Z,5976.00
2018-07-09T07:12:33.054Z,5956.00
2018-07-09T07:13:33.075Z,6080.00
2018-07-09T07:14:33.099Z,6092.00
2018-07-09T07:15:33.109Z,6156.00
2018-07-09T07:16:33.169Z,6132.00
2018-07-09T07:17:33.146Z,6276.00
2018-07-09T07:18:33.171Z,6528.00
2018-07-09T07:19:33.188Z,6568.00
2018-07-09T07:20:33.205Z,6552.00
2018-07-09T07:21:33.221Z,6556.00
2018-07-09T07:22:33.304Z,6636.00
2018-07-09T07:23:33.256Z,6708.00
2018-07-09T07:24:33.276Z,6656.00
2018-07-09T07:25:33.294Z,6676.00
2018-07-09T07:26:33.429Z,6756.00
2018-07-09T07:27:33.387Z,6888.00
2018-07-09T07:28:33.350Z,7044.00
2018-07-09T07:29:33.369Z,7104.00
2018-07-09T07:30:33.393Z,7252.00
2018-07-09T07:31:33.411Z,7280.00
2018-07-09T07:32:33.430Z,7384.00
2018-07-09T07:33:33.450Z,7372.00
2018-07-09T07:34:33.492Z,7424.00
2018-07-09T07:35:33.482Z,7428.00
2018-07-09T07:36:33.503Z,7452.00
2018-07-09T07:37:33.529Z,7456.00
2018-07-09T07:38:33.543Z,7684.00
2018-07-09T07:39:33.558Z,7652.00
2018-07-09T07:40:33.583Z,7936.00
2018-07-09T07:41:33.597Z,7876.00
2018-07-09T07:42:33.620Z,8220.00
2018-07-09T07:43:33.636Z,8348.00
2018-07-09T07:44:33.654Z,8284.00
2018-07-09T07:45:33.675Z,8472.00
2018-07-09T07:46:33.776Z,8496.00
2018-07-09T07:47:33.718Z,8508.00
2018-07-09T07:48:33.788Z,8512.00
2018-07-09T07:49:33.753Z,8440.00
2018-07-09T07:50:33.889Z,8416.00
2018-07-09T07:51:33.792Z,8436.00
2018-07-09T07:52:33.871Z,8636.00
2018-07-09T07:53:33.835Z,8728.00
2018-07-09T07:54:33.856Z,8756.00
2018-07-09T07:55:33.869Z,8880.00
2018-07-09T07:56:33.894Z,8968.00
2018-07-09T07:57:33.913Z,9028.00
2018-07-09T07:58:33.936Z,9096.00
2018-07-09T07:59:33.948Z,9200.00
2018-07-09T08:00:33.975Z,9240.00
2018-07-09T08:01:33.993Z,9232.00
2018-07-09T08:02:34.013Z,9400.00
2018-07-09T08:03:34.028Z,9432.00
2018-07-09T08:04:34.053Z,9212.00
2018-07-09T08:05:34.068Z,9460.00
2018-07-09T08:06:34.092Z,9356.00
2018-07-09T08:07:34.107Z,9464.00
2018-07-09T08:08:34.128Z,9688.00
2018-07-09T08:09:34.193Z,9692.00
2018-07-09T08:10:34.168Z,9868.00
2018-07-09T08:11:48.555Z,9840.00
2018-07-09T08:13:34.256Z,9764.00
2018-07-09T08:14:34.247Z,9764.00
2018-07-09T08:15:34.281Z,9848.00
2018-07-09T08:16:34.288Z,10144.00
2018-07-09T08:17:34.332Z,10032.00
2018-07-09T08:18:34.329Z,9896.00
2018-07-09T08:19:34.349Z,9956.00
2018-07-09T08:20:34.421Z,9992.00
2018-07-09T08:21:34.395Z,10288.00
2018-07-09T08:22:34.411Z,10104.00
2018-07-09T08:23:34.483Z,9880.00
2018-07-09T08:24:34.455Z,10020.00
2018-07-09T08:25:34.669Z,10008.00
2018-07-09T08:26:34.495Z,10224.00
2018-07-09T08:27:34.516Z,10080.00
2018-07-09T08:28:34.559Z,9812.00
2018-07-09T08:29:34.588Z,10744.00
2018-07-09T08:30:34.575Z,10864.00
2018-07-09T08:31:34.596Z,10540.00
2018-07-09T08:32:34.625Z,10272.00
2018-07-09T08:33:34.636Z,9900.00
2018-07-09T08:34:34.664Z,10720.00
2018-07-09T08:35:34.681Z,10744.00
2018-07-09T08:36:34.701Z,11028.00
2018-07-09T08:37:34.726Z,11000.00
2018-07-09T08:38:34.742Z,11072.00
2018-07-09T08:39:34.766Z,10808.00
2018-07-09T08:40:34.784Z,11292.00
2018-07-09T08:41:34.804Z,11352.00
2018-07-09T08:42:34.833Z,11424.00
2018-07-09T08:43:34.848Z,11688.00
2018-07-09T08:44:34.874Z,10272.00
2018-07-09T08:45:34.893Z,11304.00
2018-07-09T08:46:34.917Z,11616.00
2018-07-09T08:47:34.931Z,11704.00
2018-07-09T08:48:34.957Z,11192.00
2018-07-09T08:49:34.974Z,11744.00
2018-07-09T08:50:35.000Z,11828.00
2018-07-09T08:51:35.017Z,11972.00
2018-07-09T08:52:35.046Z,11864.00
2018-07-09T08:53:35.060Z,11968.00
2018-07-09T08:54:35.163Z,12060.00
2018-07-09T08:55:35.292Z,12108.00
2018-07-09T08:56:35.126Z,11980.00
2018-07-09T08:57:35.159Z,11940.00
2018-07-09T08:58:35.169Z,12228.00
2018-07-09T08:59:35.194Z,12320.00
2018-07-09T09:00:35.295Z,12224.00
2018-07-09T09:01:35.234Z,11852.00
2018-07-09T09:02:35.261Z,12368.00
2018-07-09T09:03:35.276Z,12264.00
2018-07-09T09:04:35.304Z,12512.00
2018-07-09T09:05:35.319Z,12608.00
2018-07-09T09:06:35.347Z,12584.00
2018-07-09T09:07:35.366Z,12524.00
2018-07-09T09:08:35.438Z,12956.00
2018-07-09T09:09:35.415Z,13088.00
2018-07-09T09:10:35.436Z,13124.00
2018-07-09T09:11:35.457Z,13220.00
2018-07-09T09:12:35.482Z,13276.00
2018-07-09T09:13:35.497Z,13296.00
2018-07-09T09:14:35.525Z,13204.00
2018-07-09T09:15:35.547Z,12996.00
2018-07-09T09:16:35.623Z,12972.00
2018-07-09T09:17:35.592Z,13196.00
2018-07-09T09:18:35.611Z,13504.00
2018-07-09T09:19:35.714Z,13612.00
2018-07-09T09:20:35.710Z,13788.00
2018-07-09T09:21:35.686Z,13972.00
2018-07-09T09:22:35.701Z,13784.00
2018-07-09T09:23:35.772Z,13936.00
2018-07-09T09:24:35.750Z,14200.00
2018-07-09T09:25:35.859Z,14132.00
2018-07-09T09:26:35.841Z,14204.00
2018-07-09T09:27:35.817Z,14332.00
2018-07-09T09:28:35.841Z,14228.00
2018-07-09T09:29:35.863Z,12680.00
2018-07-09T09:30:35.880Z,12400.00
2018-07-09T09:31:36.009Z,12540.00
2018-07-09T09:32:35.933Z,10824.00
2018-07-09T09:33:35.950Z,10280.00
2018-07-09T09:34:35.976Z,10044.00
2018-07-09T09:35:35.995Z,5820.00
2018-07-09T09:36:36.017Z,5376.00
2018-07-09T09:37:36.045Z,5580.00
2018-07-09T09:38:36.112Z,7116.00
2018-07-09T09:39:36.089Z,9968.00
2018-07-09T09:40:36.106Z,14128.00
2018-07-09T09:41:36.129Z,13336.00
2018-07-09T09:42:36.155Z,13816.00
2018-07-09T09:43:36.176Z,14368.00
2018-07-09T09:45:36.219Z,15456.00
2018-07-09T09:46:36.245Z,14880.00
2018-07-09T09:47:36.266Z,10224.00
2018-07-09T09:48:36.284Z,8892.00
2018-07-09T09:49:36.307Z,7756.00
2018-07-09T09:50:36.380Z,6656.00
2018-07-09T09:51:36.357Z,6348.00
2018-07-09T09:52:36.377Z,8584.00
2018-07-09T09:53:36.399Z,10928.00
2018-07-09T09:54:36.419Z,15744.00
2018-07-09T09:55:36.454Z,15744.00
2018-07-09T09:56:36.515Z,15264.00
2018-07-09T09:57:36.495Z,14628.00
2018-07-09T09:58:36.508Z,14944.00
2018-07-09T09:59:36.535Z,15040.00
2018-07-09T10:00:36.602Z,14596.00
2018-07-09T10:01:36.679Z,15680.00
2018-07-09T10:02:36.602Z,15488.00
2018-07-09T10:03:36.625Z,15456.00
2018-07-09T10:04:36.652Z,15552.00
2018-07-09T10:05:36.665Z,15072.00
2018-07-09T10:06:36.701Z,12936.00
2018-07-09T10:07:36.715Z,8364.00
2018-07-09T10:08:36.760Z,8392.00
2018-07-09T10:09:36.763Z,7864.00
2018-07-09T10:10:36.785Z,8556.00
2018-07-09T10:11:36.806Z,9528.00
2018-07-09T10:12:36.829Z,11432.00
2018-07-09T10:13:36.847Z,16192.00
2018-07-09T10:14:36.871Z,13500.00
2018-07-09T10:15:36.896Z,15360.00
2018-07-09T10:16:36.921Z,9916.00
2018-07-09T10:17:36.939Z,12844.00
2018-07-09T10:18:36.961Z,12508.00
2018-07-09T10:19:36.992Z,14124.00
2018-07-09T10:20:37.006Z,16640.00
2018-07-09T10:21:37.030Z,16928.00
2018-07-09T10:22:37.052Z,10516.00
2018-07-09T10:23:37.095Z,9588.00
2018-07-09T10:24:37.102Z,9452.00
2018-07-09T10:25:37.203Z,11660.00
2018-07-09T10:26:37.141Z,8260.00
2018-07-09T10:27:37.165Z,8436.00
2018-07-09T10:28:37.193Z,9312.00
2018-07-09T10:29:37.217Z,13192.00
2018-07-09T10:30:37.252Z,14280.00
2018-07-09T10:31:37.258Z,10128.00
2018-07-09T10:32:37.280Z,16064.00
2018-07-09T10:33:37.312Z,16864.00
2018-07-09T10:34:37.333Z,16800.00
2018-07-09T10:35:37.349Z,16448.00
2018-07-09T10:36:37.421Z,16864.00
2018-07-09T10:37:37.459Z,14388.00
2018-07-09T10:38:37.423Z,12904.00
2018-07-09T10:39:37.467Z,17024.00
2018-07-09T10:40:37.464Z,14660.00
2018-07-09T10:41:37.494Z,16576.00
2018-07-09T10:42:37.512Z,14080.00
2018-07-09T10:43:37.553Z,17600.00
2018-07-09T10:44:37.558Z,12804.00
2018-07-09T10:45:37.582Z,13176.00
2018-07-09T10:46:37.611Z,14548.00
2018-07-09T10:47:37.633Z,14032.00
2018-07-09T10:48:37.703Z,12188.00
2018-07-09T10:49:37.677Z,11684.00
2018-07-09T10:50:37.705Z,8256.00
2018-07-09T10:51:37.727Z,15936.00
2018-07-09T10:52:37.749Z,16128.00
2018-07-09T10:53:37.777Z,15552.00
2018-07-09T10:54:37.798Z,15488.00
2018-07-09T10:55:37.874Z,16512.00
2018-07-09T10:56:37.853Z,16224.00
2018-07-09T10:57:37.870Z,10668.00
2018-07-09T10:58:37.891Z,16768.00
2018-07-09T10:59:37.916Z,14316.00
2018-07-09T11:00:37.983Z,10428.00
2018-07-09T11:01:38.014Z,16640.00
2018-07-09T11:02:38.037Z,15648.00
2018-07-09T11:03:38.010Z,12188.00
2018-07-09T11:04:38.035Z,16352.00
2018-07-09T11:05:38.064Z,12172.00
2018-07-09T11:06:38.087Z,15904.00
2018-07-09T11:07:38.108Z,15648.00
2018-07-09T11:08:38.216Z,15680.00
2018-07-09T11:09:38.213Z,15968.00
2018-07-09T11:10:38.179Z,15680.00
2018-07-09T11:11:38.201Z,10524.00
2018-07-09T11:12:38.229Z,11972.00
2018-07-09T11:13:38.306Z,15488.00
2018-07-09T11:14:38.280Z,15584.00
2018-07-09T11:15:38.297Z,15552.00
2018-07-09T11:16:38.327Z,15552.00
2018-07-09T11:17:38.348Z,15424.00
2018-07-09T11:18:38.371Z,15680.00
2018-07-09T11:19:38.450Z,15168.00
2018-07-09T11:20:38.423Z,15488.00
2018-07-09T11:21:38.495Z,15104.00
2018-07-09T11:22:38.467Z,15200.00
2018-07-09T11:23:38.492Z,14976.00
2018-07-09T11:24:38.517Z,14484.00
2018-07-09T11:25:38.545Z,15168.00
2018-07-09T11:26:38.614Z,14080.00
2018-07-09T11:27:38.593Z,14768.00
2018-07-09T11:28:38.612Z,15168.00
2018-07-09T11:29:38.640Z,15040.00
2018-07-09T11:30:38.660Z,15104.00
2018-07-09T11:31:38.735Z,14976.00
2018-07-09T11:32:38.710Z,15008.00
2018-07-09T11:33:38.737Z,15264.00
2018-07-09T11:34:38.759Z,15328.00
2018-07-09T11:35:38.779Z,15296.00
2018-07-09T11:36:38.803Z,15168.00
2018-07-09T11:37:38.862Z,15392.00
2018-07-09T11:38:38.852Z,15168.00
2018-07-09T11:39:38.943Z,15104.00
2018-07-09T11:40:38.901Z,14944.00
2018-07-09T11:41:38.929Z,15008.00
2018-07-09T11:42:38.954Z,14724.00
2018-07-09T11:43:38.972Z,15392.00
2018-07-09T11:44:39.024Z,15328.00
2018-07-09T11:45:39.097Z,15168.00
2018-07-09T11:46:39.046Z,15328.00
2018-07-09T11:47:39.068Z,15232.00
2018-07-09T11:48:39.101Z,15168.00
2018-07-09T11:49:39.122Z,15232.00
2018-07-09T11:50:39.151Z,15232.00
2018-07-09T11:51:39.488Z,15328.00
2018-07-09T11:52:39.196Z,15072.00
2018-07-09T11:53:39.218Z,15200.00
2018-07-09T11:54:39.246Z,15200.00
2018-07-09T11:55:39.269Z,15040.00
2018-07-09T11:56:39.296Z,15264.00
2018-07-09T11:57:39.352Z,15360.00
2018-07-09T11:58:39.367Z,15392.00
2018-07-09T11:59:39.365Z,15328.00
2018-07-09T12:00:39.390Z,15328.00
2018-07-09T12:01:39.417Z,15264.00
2018-07-09T12:02:39.442Z,15040.00
2018-07-09T12:03:39.481Z,15008.00
2018-07-09T12:04:39.545Z,15168.00
2018-07-09T12:05:39.510Z,15200.00
2018-07-09T12:06:39.535Z,15136.00
2018-07-09T12:07:39.609Z,15168.00
2018-07-09T12:08:39.584Z,15264.00
2018-07-09T12:09:39.676Z,15232.00
2018-07-09T12:10:39.638Z,15200.00
2018-07-09T12:11:39.661Z,15104.00
2018-07-09T12:12:39.686Z,15168.00
2018-07-09T12:13:39.710Z,15200.00
2018-07-09T12:14:39.732Z,15232.00
2018-07-09T12:15:39.755Z,15200.00
2018-07-09T12:16:39.787Z,15232.00
2018-07-09T12:17:39.805Z,15168.00
2018-07-09T12:19:39.875Z,15072.00
2018-07-09T12:20:39.884Z,14944.00
2018-07-09T12:21:39.952Z,15072.00
2018-07-09T12:22:39.938Z,15072.00
2018-07-09T12:23:39.958Z,15104.00
2018-07-09T12:24:39.979Z,15104.00
2018-07-09T12:25:40.007Z,14944.00
2018-07-09T12:26:40.030Z,15040.00
2018-07-09T12:27:40.054Z,14420.00
2018-07-09T12:28:40.088Z,15008.00
2018-07-09T12:29:40.112Z,14880.00
2018-07-09T12:30:40.131Z,14880.00
2018-07-09T12:31:40.158Z,14660.00